Terminal Aerodrome Forecast
Issued by NWS Billings, MT

Home | Current Version | Previous Version | Text Only | Print | Product List | Glossary On
Versions: 1 2 3 4 5 6 7 8 9 10 11 12 13 14 15 16 17 18 19 20 21 22 23 24 25 26 27
000
FTUS45 KBYZ 291757 RRA
TAFBIL

TAF
KBIL 291757Z 2918/3018 10006KT P6SM SCT100
     FM292000 06012G18KT P6SM VCSH SCT120
     FM300200 09006KT P6SM FEW150=

USA.gov is the U.S. government's official web portal to all federal, state and local government web resources and services.